createdAt,value
2018-07-20T00:00:21.517Z,70.21
2018-07-20T00:01:21.564Z,70.21
2018-07-20T00:02:21.411Z,70.21
2018-07-20T00:05:03.649Z,70.41
2018-07-20T00:06:04.649Z,70.41
2018-07-20T00:07:03.495Z,70.31
2018-07-20T00:11:28.210Z,70.89
2018-07-20T00:12:28.089Z,70.98
2018-07-20T00:13:27.980Z,70.79
2018-07-20T00:16:10.154Z,71.08
2018-07-20T00:17:11.162Z,70.89
2018-07-20T00:18:09.966Z,70.79
2018-07-20T00:19:10.006Z,70.41
2018-07-20T00:20:09.817Z,71.14
2018-07-20T00:21:09.832Z,70.95
2018-07-20T00:22:09.764Z,70.47
2018-07-20T00:23:09.737Z,70.95
2018-07-20T00:24:09.513Z,70.56
2018-07-20T00:25:09.600Z,70.56
2018-07-20T00:26:09.376Z,70.76
2018-07-20T00:27:09.355Z,71.14
2018-07-20T00:28:09.198Z,70.66
2018-07-20T00:29:09.155Z,71.04
2018-07-20T00:30:09.049Z,70.56
2018-07-20T00:31:10.020Z,69.89
2018-07-20T00:32:08.878Z,69.99
2018-07-20T00:33:08.881Z,69.89
2018-07-20T00:34:08.772Z,70.18
2018-07-20T00:35:08.747Z,70.18
2018-07-20T00:36:08.581Z,70.09
2018-07-20T00:37:08.593Z,69.99
2018-07-20T00:38:08.429Z,70.37
2018-07-20T00:39:08.451Z,70.18
2018-07-20T00:40:08.276Z,70.28
2018-07-20T00:41:08.210Z,70.66
2018-07-20T00:42:08.109Z,70.76
2018-07-20T00:43:08.146Z,70.95
2018-07-20T00:44:07.945Z,70.76
2018-07-20T00:45:07.967Z,70.76
2018-07-20T00:46:07.793Z,70.76
2018-07-20T00:47:07.959Z,71.14
2018-07-20T00:48:07.646Z,70.86
2018-07-20T00:49:08.069Z,70.66
2018-07-20T00:50:07.521Z,70.66
2018-07-20T00:51:08.328Z,70.86
2018-07-20T00:52:07.350Z,71.04
2018-07-20T00:54:49.151Z,70.95
2018-07-20T00:55:49.190Z,70.86
2018-07-20T00:56:49.015Z,71.24
2018-07-20T00:59:31.137Z,71.81
2018-07-20T01:00:32.136Z,71.72
2018-07-20T01:01:30.984Z,71.91
2018-07-20T01:04:13.162Z,71.69
2018-07-20T01:06:38.007Z,72.07
2018-07-20T01:07:37.567Z,72.65
2018-07-20T01:08:37.593Z,72.45
2018-07-20T01:09:37.413Z,72.36
2018-07-20T01:10:37.392Z,72.84
2018-07-20T01:11:37.283Z,72.55
2018-07-20T01:14:19.146Z,72.55
2018-07-20T01:17:01.295Z,73.32
2018-07-20T01:18:01.186Z,72.74
2018-07-20T01:19:00.990Z,72.55
2018-07-20T01:20:00.991Z,72.55
2018-07-20T01:21:00.833Z,72.26
2018-07-20T01:22:00.945Z,72.55
2018-07-20T01:23:00.690Z,72.36
2018-07-20T01:24:00.717Z,71.97
2018-07-20T01:25:00.523Z,72.65
2018-07-20T01:27:42.678Z,72.26
2018-07-20T01:28:42.636Z,72.55
2018-07-20T01:29:42.496Z,73.03
2018-07-20T01:32:24.666Z,72.65
2018-07-20T01:33:24.604Z,72.26
2018-07-20T01:34:24.503Z,72.55
2018-07-20T01:37:06.653Z,72.65
2018-07-20T01:38:06.714Z,72.94
2018-07-20T01:39:06.493Z,72.94
2018-07-20T01:40:06.455Z,73.13
2018-07-20T01:41:06.343Z,73.22
2018-07-20T01:42:06.490Z,73.61
2018-07-20T01:43:06.205Z,73.80
2018-07-20T01:44:06.174Z,74.19
2018-07-20T01:45:06.176Z,73.71
2018-07-20T01:46:05.976Z,73.77
2018-07-20T01:47:05.882Z,74.29
2018-07-20T01:48:05.919Z,73.90
2018-07-20T01:49:05.716Z,73.61
2018-07-20T01:50:05.695Z,73.57
2018-07-20T01:51:05.560Z,73.57
2018-07-20T01:52:05.504Z,73.80
2018-07-20T01:53:05.418Z,73.77
2018-07-20T01:54:05.418Z,73.57
2018-07-20T01:55:05.265Z,73.77
2018-07-20T01:56:05.222Z,74.05
2018-07-20T01:57:05.173Z,74.05
2018-07-20T01:58:05.072Z,74.05
2018-07-20T01:59:04.947Z,74.63
2018-07-20T02:00:04.952Z,74.34
2018-07-20T02:01:04.781Z,74.48
2018-07-20T02:03:46.683Z,74.92
2018-07-20T02:04:46.655Z,74.92
2018-07-20T02:05:46.500Z,74.63
2018-07-20T02:09:29.692Z,75.21
2018-07-20T02:12:11.680Z,75.37
2018-07-20T02:41:52.766Z,76.71
2018-07-20T02:42:52.652Z,77.09
2018-07-20T02:43:52.640Z,76.71
2018-07-20T02:44:52.442Z,76.90
2018-07-20T02:45:52.496Z,76.61
2018-07-20T02:46:52.278Z,76.52
2018-07-20T02:47:52.255Z,77.09
2018-07-20T02:48:52.124Z,77.09
2018-07-20T02:49:52.105Z,77.09
2018-07-20T02:50:51.995Z,77.38
2018-07-20T02:51:51.994Z,77.29
2018-07-20T02:52:51.809Z,77.67
2018-07-20T02:55:33.697Z,77.96
2018-07-20T02:56:54.618Z,78.06
2018-07-20T02:57:33.636Z,77.76
2018-07-20T02:58:33.494Z,78.15
2018-07-20T02:59:33.353Z,77.96
2018-07-20T03:00:33.335Z,78.44
2018-07-20T03:01:33.204Z,78.63
2018-07-20T03:02:33.207Z,78.63
2018-07-20T03:03:33.064Z,78.63
2018-07-20T03:06:15.206Z,78.83
2018-07-20T03:07:15.219Z,78.63
2018-07-20T03:08:15.027Z,78.83
2018-07-20T03:09:15.037Z,78.59
2018-07-20T03:10:14.887Z,78.44
2018-07-20T03:11:14.906Z,79.30
2018-07-20T03:12:14.710Z,78.98
2018-07-20T03:13:14.760Z,79.84
2018-07-20T03:14:14.557Z,79.27
2018-07-20T03:15:14.607Z,79.65
2018-07-20T03:16:14.414Z,80.32
2018-07-20T03:17:14.365Z,80.32
2018-07-20T03:18:14.237Z,80.51
2018-07-20T03:19:14.274Z,80.22
2018-07-20T03:20:14.092Z,80.22
2018-07-20T03:21:14.127Z,80.04
2018-07-20T03:22:13.919Z,80.32
2018-07-20T03:23:13.906Z,80.51
2018-07-20T03:24:13.783Z,80.32
2018-07-20T03:26:55.705Z,81.38
2018-07-20T03:27:55.744Z,81.67
2018-07-20T03:28:55.669Z,81.82
2018-07-20T03:31:37.690Z,82.78
2018-07-20T03:32:37.759Z,83.16
2018-07-20T03:33:37.529Z,83.16
2018-07-20T03:34:37.534Z,83.07
2018-07-20T03:35:37.398Z,82.78
2018-07-20T03:36:37.344Z,83.07
2018-07-20T03:37:37.292Z,83.45
2018-07-20T03:40:19.206Z,82.05
2018-07-20T03:41:21.159Z,81.92
2018-07-20T03:42:19.043Z,81.96
2018-07-20T03:43:22.986Z,82.10
2018-07-20T03:44:18.883Z,81.82
2018-07-20T03:45:20.807Z,82.01
2018-07-20T03:46:18.731Z,82.20
2018-07-20T03:47:18.780Z,82.87
2018-07-20T03:48:18.582Z,82.87
2018-07-20T03:49:18.569Z,83.07
2018-07-20T04:08:41.181Z,84.41
2018-07-20T04:09:42.103Z,84.70
2018-07-20T04:10:40.866Z,84.89
2018-07-20T04:11:40.839Z,84.60
2018-07-20T04:12:40.715Z,84.70
2018-07-20T04:13:40.753Z,84.03
2018-07-20T04:14:40.564Z,83.93
2018-07-20T04:15:40.560Z,83.93
2018-07-20T04:16:40.395Z,84.03
2018-07-20T04:19:22.725Z,83.93
2018-07-20T04:20:23.427Z,84.51
2018-07-20T04:21:22.548Z,83.93
2018-07-20T04:22:25.110Z,83.74
2018-07-20T04:23:22.391Z,83.97
2018-07-20T04:24:22.579Z,83.84
2018-07-20T04:25:22.248Z,84.12
2018-07-20T04:26:24.145Z,84.12
2018-07-20T04:27:22.176Z,84.60
2018-07-20T04:28:22.111Z,85.08
2018-07-20T04:29:21.916Z,84.12
2018-07-20T04:30:21.952Z,84.22
2018-07-20T04:31:21.753Z,84.99
2018-07-20T04:32:21.698Z,84.45
2018-07-20T04:33:21.602Z,84.99
2018-07-20T04:34:21.635Z,86.14
2018-07-20T04:35:21.467Z,86.05
2018-07-20T04:36:21.448Z,86.05
2018-07-20T04:37:21.286Z,85.85
2018-07-20T04:38:21.258Z,85.75
2018-07-20T04:39:21.183Z,85.08
2018-07-20T04:40:21.112Z,85.57
2018-07-20T04:41:20.975Z,86.18
2018-07-20T04:42:20.888Z,86.14
2018-07-20T04:43:20.809Z,86.05
2018-07-20T04:44:20.734Z,86.24
2018-07-20T04:45:20.681Z,85.75
2018-07-20T04:46:20.599Z,85.57
2018-07-20T04:47:20.485Z,86.14
2018-07-20T04:48:20.422Z,86.24
2018-07-20T04:49:20.351Z,86.81
2018-07-20T04:50:20.285Z,87.29
2018-07-20T04:51:20.188Z,87.39
2018-07-20T04:54:02.236Z,85.95
2018-07-20T04:55:02.129Z,86.52
2018-07-20T04:56:02.077Z,87.01
2018-07-20T04:57:02.005Z,87.19
2018-07-20T04:58:01.897Z,87.49
2018-07-20T04:59:01.856Z,87.96
2018-07-20T05:00:01.742Z,88.25
2018-07-20T05:01:01.683Z,88.35
2018-07-20T05:02:01.589Z,87.96
2018-07-20T05:03:01.519Z,88.45
2018-07-20T05:04:01.451Z,88.31
2018-07-20T05:06:43.739Z,88.54
2018-07-20T05:09:25.984Z,88.54
2018-07-20T05:10:25.772Z,88.93
2018-07-20T05:11:25.839Z,89.12
2018-07-20T05:12:25.544Z,88.93
2018-07-20T05:13:25.400Z,88.54
2018-07-20T05:14:25.326Z,87.96
2018-07-20T05:15:25.256Z,88.06
2018-07-20T05:18:07.236Z,88.83
2018-07-20T05:20:49.220Z,88.64
2018-07-20T05:21:49.160Z,89.02
2018-07-20T05:24:27.397Z,88.64
2018-07-20T05:25:27.387Z,89.12
2018-07-20T05:26:27.746Z,89.50
2018-07-20T05:27:27.239Z,89.50
2018-07-20T05:28:27.167Z,89.12
2018-07-20T05:29:26.831Z,89.16
2018-07-20T05:30:26.758Z,88.49
2018-07-20T05:31:26.670Z,88.39
2018-07-20T05:32:26.613Z,88.20
2018-07-20T05:33:26.553Z,87.92
2018-07-20T05:34:26.436Z,88.39
2018-07-20T05:35:26.356Z,87.92
2018-07-20T05:36:26.271Z,88.30
2018-07-20T05:37:26.216Z,89.26
2018-07-20T05:38:26.150Z,89.74
2018-07-20T05:39:26.049Z,89.64
2018-07-20T05:40:25.960Z,89.36
2018-07-20T05:46:29.140Z,89.01
2018-07-20T05:47:29.057Z,88.53
2018-07-20T05:48:30.972Z,88.53
2018-07-20T05:49:28.899Z,88.44
2018-07-20T05:50:29.024Z,87.96
2018-07-20T05:51:28.688Z,87.86
2018-07-20T05:54:10.759Z,86.94
2018-07-20T05:55:10.696Z,87.13
2018-07-20T05:56:10.579Z,86.36
2018-07-20T05:57:11.515Z,86.18
2018-07-20T05:58:10.421Z,86.27
2018-07-20T05:59:10.358Z,85.74
2018-07-20T06:00:10.265Z,85.35
2018-07-20T06:01:10.234Z,85.35
2018-07-20T06:02:10.097Z,85.25
2018-07-20T06:03:10.053Z,85.20
2018-07-20T06:04:09.992Z,84.81
2018-07-20T06:05:09.883Z,84.23
2018-07-20T06:06:09.784Z,83.95
2018-07-20T06:07:09.745Z,84.23
2018-07-20T06:08:09.633Z,84.33
2018-07-20T06:09:09.579Z,84.33
2018-07-20T06:10:09.494Z,84.29
2018-07-20T06:11:09.405Z,84.19
2018-07-20T06:12:09.313Z,84.19
2018-07-20T06:13:09.250Z,84.87
2018-07-20T06:14:09.244Z,84.67
2018-07-20T06:15:09.112Z,85.06
2018-07-20T06:16:08.997Z,84.39
2018-07-20T06:17:08.944Z,85.10
2018-07-20T06:18:08.844Z,84.81
2018-07-20T06:19:08.835Z,83.75
2018-07-20T06:20:08.713Z,83.37
2018-07-20T06:21:08.631Z,83.66
2018-07-20T06:22:08.551Z,83.18
2018-07-20T06:24:50.775Z,82.64
2018-07-20T06:25:51.818Z,81.81
2018-07-20T06:26:50.584Z,81.58
2018-07-20T06:27:50.521Z,81.04
2018-07-20T06:28:50.434Z,79.49
2018-07-20T06:53:12.398Z,59.05
2018-07-20T06:55:54.286Z,57.07
2018-07-20T06:56:54.186Z,56.97
2018-07-20T06:57:54.108Z,57.14
2018-07-20T06:58:54.030Z,57.46
2018-07-20T06:59:53.963Z,56.00
2018-07-20T07:00:54.925Z,56.12
2018-07-20T07:01:53.813Z,55.86
2018-07-20T07:02:53.751Z,54.38
2018-07-20T07:03:53.857Z,55.37
2018-07-20T07:04:53.601Z,55.32
2018-07-20T07:05:53.548Z,57.54
2018-07-20T07:06:54.489Z,59.03
2018-07-20T07:07:53.387Z,58.21
2018-07-20T07:08:53.321Z,57.26
2018-07-20T07:09:53.242Z,56.95
2018-07-20T07:10:53.182Z,56.59
2018-07-20T07:11:53.132Z,55.27
2018-07-20T07:12:53.060Z,54.91
2018-07-20T07:13:52.958Z,53.75
2018-07-20T07:14:52.943Z,54.65
2018-07-20T07:24:16.095Z,54.90
2018-07-20T07:25:15.980Z,56.85
2018-07-20T07:27:58.293Z,55.71
2018-07-20T07:28:58.206Z,54.69
2018-07-20T07:29:58.121Z,53.81
2018-07-20T07:30:58.067Z,54.60
2018-07-20T07:31:57.996Z,53.85
2018-07-20T07:32:57.958Z,52.73
2018-07-20T07:33:57.857Z,52.53
2018-07-20T07:34:57.784Z,51.56
2018-07-20T07:35:57.699Z,52.80
2018-07-20T07:36:57.642Z,52.99
2018-07-20T07:37:57.658Z,53.41
2018-07-20T07:38:57.505Z,50.51
2018-07-20T07:39:57.429Z,51.29
2018-07-20T07:40:57.429Z,52.07
2018-07-20T07:41:57.298Z,51.36
2018-07-20T07:42:57.250Z,50.21
2018-07-20T07:43:57.154Z,49.49
2018-07-20T07:44:57.105Z,49.19
2018-07-20T07:45:57.019Z,49.29
2018-07-20T07:48:39.298Z,50.82
2018-07-20T07:49:39.218Z,49.73
2018-07-20T07:50:39.255Z,50.19
2018-07-20T07:51:39.292Z,50.41
2018-07-20T07:52:39.102Z,50.02
2018-07-20T07:53:39.493Z,49.73
2018-07-20T07:54:38.854Z,50.04
2018-07-20T07:55:38.812Z,51.09
2018-07-20T07:56:38.767Z,50.04
2018-07-20T07:57:38.664Z,49.46
2018-07-20T07:58:38.621Z,49.66
2018-07-20T07:59:38.522Z,50.02
2018-07-20T08:00:38.444Z,49.76
2018-07-20T08:01:38.382Z,48.71
2018-07-20T08:02:38.345Z,48.80
2018-07-20T08:03:38.263Z,48.12
2018-07-20T08:04:38.205Z,47.85
2018-07-20T08:05:38.115Z,48.32
2018-07-20T08:06:38.038Z,48.12
2018-07-20T08:07:37.996Z,47.56
2018-07-20T08:08:37.965Z,48.41
2018-07-20T08:09:37.901Z,47.63
2018-07-20T08:10:37.767Z,47.73
2018-07-20T08:13:19.774Z,49.15
2018-07-20T08:14:20.741Z,49.17
2018-07-20T08:15:19.688Z,48.71
2018-07-20T08:18:01.858Z,47.80
2018-07-20T08:20:43.815Z,47.17
2018-07-20T08:23:25.799Z,46.09
2018-07-20T08:24:25.732Z,45.82
2018-07-20T08:25:25.708Z,46.31
2018-07-20T08:26:25.592Z,44.89
2018-07-20T08:27:25.545Z,45.75
2018-07-20T08:28:25.459Z,45.10
2018-07-20T08:29:25.405Z,44.91
2018-07-20T08:30:25.394Z,45.05
2018-07-20T08:31:25.255Z,44.66
2018-07-20T08:34:07.303Z,43.90
2018-07-20T08:35:07.274Z,43.80
2018-07-20T08:36:07.145Z,44.46
2018-07-20T08:37:07.106Z,43.85
2018-07-20T08:38:07.043Z,42.80
2018-07-20T08:39:06.962Z,43.29
2018-07-20T08:40:06.957Z,43.37
2018-07-20T08:41:06.883Z,42.60
2018-07-20T08:42:06.780Z,43.19
2018-07-20T08:43:06.709Z,43.27
2018-07-20T08:44:06.722Z,43.84
2018-07-20T08:45:06.922Z,44.43
2018-07-20T08:46:06.499Z,46.39
2018-07-20T08:47:06.433Z,45.08
2018-07-20T08:48:06.365Z,44.44
2018-07-20T08:50:48.315Z,43.21
2018-07-20T08:51:48.235Z,42.80
2018-07-20T08:52:48.176Z,42.60
2018-07-20T08:53:48.147Z,42.19
2018-07-20T08:54:48.047Z,42.48
2018-07-20T08:55:48.038Z,42.60
2018-07-20T08:56:47.906Z,43.29
2018-07-20T08:57:47.855Z,42.91
2018-07-20T08:58:48.016Z,42.15
2018-07-20T08:59:47.737Z,41.17
2018-07-20T09:00:47.689Z,41.00
2018-07-20T09:01:47.603Z,41.96
2018-07-20T09:02:47.513Z,41.68
2018-07-20T09:03:47.491Z,41.66
2018-07-20T09:04:47.393Z,41.56
2018-07-20T09:05:48.357Z,42.02
2018-07-20T09:06:47.299Z,42.82
2018-07-20T09:07:47.343Z,42.23
2018-07-20T09:08:47.138Z,42.80
2018-07-20T09:09:47.112Z,41.64
2018-07-20T09:10:47.003Z,42.19
2018-07-20T09:11:46.999Z,42.23
2018-07-20T09:12:46.878Z,42.50
2018-07-20T09:15:28.858Z,42.27
2018-07-20T09:16:28.779Z,42.68
2018-07-20T09:17:28.755Z,42.41
2018-07-20T09:18:28.636Z,42.60
2018-07-20T09:19:28.549Z,43.41
2018-07-20T09:22:10.847Z,41.37
2018-07-20T09:23:10.764Z,41.62
2018-07-20T09:24:10.734Z,41.25
2018-07-20T09:25:10.646Z,40.58
2018-07-20T09:26:10.559Z,41.02
2018-07-20T09:27:10.546Z,39.64
2018-07-20T09:28:10.462Z,39.14
2018-07-20T09:29:10.366Z,39.62
2018-07-20T09:30:10.313Z,40.31
2018-07-20T09:31:10.278Z,39.69
2018-07-20T09:32:10.217Z,39.62
2018-07-20T09:34:52.310Z,39.61
2018-07-20T09:35:52.293Z,39.84
2018-07-20T09:36:52.208Z,41.76
2018-07-20T09:37:52.157Z,41.68
2018-07-20T09:38:52.063Z,40.82
2018-07-20T09:39:52.024Z,40.63
2018-07-20T09:40:51.970Z,40.41
2018-07-20T09:41:51.880Z,40.97
2018-07-20T09:42:51.908Z,40.88
2018-07-20T09:45:33.825Z,42.05
2018-07-20T09:46:33.793Z,41.88
2018-07-20T09:47:33.710Z,41.60
2018-07-20T09:48:33.666Z,40.47
2018-07-20T09:49:33.710Z,40.48
2018-07-20T09:50:33.530Z,39.14
2018-07-20T09:51:33.456Z,38.53
2018-07-20T09:52:33.388Z,39.98
2018-07-20T09:53:33.334Z,39.61
2018-07-20T09:54:33.318Z,39.51
2018-07-20T09:55:33.186Z,39.14
2018-07-20T09:56:33.130Z,38.72
2018-07-20T09:57:33.056Z,39.23
2018-07-20T09:58:33.140Z,38.54
2018-07-20T09:59:33.085Z,38.64
2018-07-20T10:00:32.882Z,38.15
2018-07-20T10:01:32.802Z,38.51
2018-07-20T10:02:32.756Z,39.69
2018-07-20T10:03:32.729Z,39.29
2018-07-20T10:06:14.833Z,39.23
2018-07-20T10:07:14.774Z,38.66
2018-07-20T10:08:14.818Z,38.54
2018-07-20T10:09:14.719Z,38.84
2018-07-20T10:10:14.592Z,39.35
2018-07-20T10:11:14.522Z,38.53
2018-07-20T10:12:14.458Z,39.82
2018-07-20T10:13:14.390Z,40.01
2018-07-20T10:14:14.357Z,38.54
2018-07-20T10:16:56.335Z,41.49
2018-07-20T10:19:38.352Z,41.58
2018-07-20T10:22:20.326Z,43.28
2018-07-20T10:23:20.291Z,41.96
2018-07-20T10:24:20.231Z,41.92
2018-07-20T10:25:21.182Z,40.88
2018-07-20T10:26:20.070Z,39.25
2018-07-20T10:27:20.172Z,39.17
2018-07-20T10:28:19.958Z,38.68
2018-07-20T10:29:19.914Z,37.30
2018-07-20T10:30:19.818Z,37.40
2018-07-20T10:31:20.771Z,37.58
2018-07-20T10:32:19.695Z,38.27
2018-07-20T10:35:01.874Z,38.54
2018-07-20T10:36:01.779Z,38.76
2018-07-20T10:37:01.745Z,39.15
2018-07-20T10:38:01.713Z,39.76
2018-07-20T10:39:01.613Z,37.80
2018-07-20T10:40:01.574Z,37.96
2018-07-20T10:41:01.491Z,39.22
2018-07-20T10:43:43.343Z,41.23
2018-07-20T10:44:43.280Z,40.27
2018-07-20T10:45:43.218Z,40.25
2018-07-20T10:46:43.194Z,40.00
2018-07-20T10:47:43.082Z,39.61
2018-07-20T10:48:43.097Z,40.78
2018-07-20T10:49:42.959Z,40.45
2018-07-20T10:50:42.936Z,40.33
2018-07-20T10:51:42.874Z,41.15
2018-07-20T10:52:42.778Z,41.74
2018-07-20T10:53:42.711Z,41.76
2018-07-20T10:54:42.663Z,41.49
2018-07-20T10:55:42.566Z,40.74
2018-07-20T10:56:43.536Z,41.19
2018-07-20T10:57:42.442Z,41.60
2018-07-20T11:00:24.343Z,41.88
2018-07-20T11:01:24.449Z,42.50
2018-07-20T11:02:24.232Z,41.23
2018-07-20T11:03:24.236Z,40.55
2018-07-20T11:04:24.094Z,40.64
2018-07-20T11:05:24.019Z,40.56
2018-07-20T11:06:23.973Z,40.74
2018-07-20T11:09:05.839Z,40.45
2018-07-20T11:10:05.789Z,40.47
2018-07-20T11:11:05.709Z,40.08
2018-07-20T11:12:05.688Z,39.88
2018-07-20T11:13:05.616Z,40.76
2018-07-20T11:14:05.538Z,39.61
2018-07-20T11:15:05.477Z,40.68
2018-07-20T11:17:47.365Z,38.96
2018-07-20T11:18:47.295Z,38.29
2018-07-20T11:19:47.228Z,38.23
2018-07-20T11:20:47.194Z,38.82
2018-07-20T11:21:47.108Z,39.70
2018-07-20T11:22:49.170Z,38.84
2018-07-20T11:23:46.996Z,38.46
2018-07-20T11:26:28.849Z,38.93
2018-07-20T11:27:29.830Z,38.35
2018-07-20T11:28:28.780Z,38.92
2018-07-20T11:29:28.701Z,40.27
2018-07-20T11:30:28.635Z,40.01
2018-07-20T11:31:28.559Z,39.43
2018-07-20T11:32:28.644Z,38.90
2018-07-20T11:33:28.423Z,39.09
2018-07-20T11:34:28.349Z,39.78
2018-07-20T11:35:28.305Z,39.51
2018-07-20T11:36:28.237Z,38.74
2018-07-20T11:37:28.200Z,39.06
2018-07-20T11:38:28.123Z,38.39
2018-07-20T11:39:28.048Z,37.93
2018-07-20T11:40:27.985Z,36.97
2018-07-20T11:41:27.946Z,36.82
2018-07-20T11:42:27.864Z,37.48
2018-07-20T11:43:27.816Z,37.88
2018-07-20T11:44:27.747Z,37.78
2018-07-20T11:45:27.693Z,38.76
2018-07-20T11:46:27.674Z,38.19
2018-07-20T11:47:27.563Z,38.39
2018-07-20T11:48:27.499Z,37.23
2018-07-20T11:49:27.434Z,38.56
2018-07-20T11:50:27.357Z,38.27
2018-07-20T11:53:09.383Z,40.08
2018-07-20T11:54:09.344Z,40.25
2018-07-20T11:55:09.245Z,40.17
2018-07-20T11:56:09.189Z,40.55
2018-07-20T11:57:09.110Z,40.84
2018-07-20T11:59:51.395Z,40.74
2018-07-20T12:00:51.302Z,40.27
2018-07-20T12:01:51.254Z,39.96
2018-07-20T12:02:51.222Z,40.21
2018-07-20T12:03:51.121Z,41.96
2018-07-20T12:04:51.073Z,42.05
2018-07-20T12:05:51.019Z,42.03
2018-07-20T12:06:50.936Z,41.76
2018-07-20T12:07:50.845Z,41.49
2018-07-20T12:08:50.808Z,41.21
2018-07-20T12:09:50.744Z,40.72
2018-07-20T12:10:50.674Z,40.92
2018-07-20T12:11:50.650Z,41.72
2018-07-20T12:12:50.543Z,40.84
2018-07-20T12:13:50.461Z,40.35
2018-07-20T12:14:50.430Z,39.07
2018-07-20T12:15:50.322Z,39.64
2018-07-20T12:16:50.259Z,40.64
2018-07-20T12:17:50.200Z,40.84
2018-07-20T12:18:50.151Z,40.84
2018-07-20T12:19:50.059Z,40.48
2018-07-20T12:20:50.017Z,42.05
2018-07-20T12:21:49.908Z,41.93
2018-07-20T12:24:31.875Z,41.93
2018-07-20T12:25:31.819Z,41.74
2018-07-20T12:26:31.761Z,42.30
2018-07-20T12:27:31.707Z,42.40
2018-07-20T12:28:31.703Z,42.97
2018-07-20T12:29:31.546Z,42.97
2018-07-20T12:30:31.498Z,42.97
2018-07-20T12:31:32.437Z,43.16
2018-07-20T12:32:31.338Z,43.26
2018-07-20T12:33:31.321Z,41.99
2018-07-20T12:34:31.197Z,43.96
2018-07-20T12:35:31.133Z,42.11
2018-07-20T12:36:31.130Z,41.33
2018-07-20T12:37:30.994Z,41.62
2018-07-20T12:38:30.915Z,42.87
2018-07-20T12:41:12.931Z,41.80
2018-07-20T12:42:12.822Z,42.21
2018-07-20T12:43:12.751Z,41.82
2018-07-20T12:44:12.681Z,41.99
2018-07-20T12:45:12.605Z,41.89
2018-07-20T12:46:12.568Z,41.91
2018-07-20T12:47:12.483Z,41.60
2018-07-20T12:48:12.417Z,41.21
2018-07-20T12:49:12.351Z,40.82
2018-07-20T12:50:12.328Z,41.60
2018-07-20T12:51:12.231Z,42.30
2018-07-20T12:52:13.169Z,42.22
2018-07-20T12:53:12.048Z,40.66
2018-07-20T12:54:11.982Z,40.76
2018-07-20T12:55:11.918Z,41.15
2018-07-20T12:56:11.851Z,40.86
2018-07-20T12:57:11.787Z,41.27
2018-07-20T12:59:53.882Z,40.70
2018-07-20T13:00:53.825Z,40.60
2018-07-20T13:01:53.884Z,40.60
2018-07-20T13:02:53.686Z,38.96
2018-07-20T13:03:53.641Z,39.74
2018-07-20T13:04:53.542Z,39.54
2018-07-20T13:05:53.527Z,38.76
2018-07-20T13:06:53.412Z,38.94
2018-07-20T13:07:53.374Z,39.51
2018-07-20T13:08:53.281Z,39.23
2018-07-20T13:09:53.201Z,39.33
2018-07-20T13:10:53.297Z,39.22
2018-07-20T13:11:53.148Z,39.51
2018-07-20T13:12:53.106Z,39.61
2018-07-20T13:13:52.930Z,39.00
2018-07-20T13:14:52.852Z,39.88
2018-07-20T13:15:52.780Z,39.88
2018-07-20T13:16:52.718Z,40.56
2018-07-20T13:17:52.781Z,40.39
2018-07-20T13:18:52.571Z,40.70
2018-07-20T13:19:52.522Z,38.26
2018-07-20T13:20:52.483Z,37.96
2018-07-20T13:21:52.379Z,38.24
2018-07-20T13:22:52.365Z,38.14
2018-07-20T13:23:52.249Z,39.41
2018-07-20T13:26:34.400Z,39.15
2018-07-20T13:27:34.353Z,38.18
2018-07-20T13:28:34.288Z,38.26
2018-07-20T13:29:34.318Z,38.61
2018-07-20T13:30:34.126Z,39.37
2018-07-20T13:31:34.066Z,39.96
2018-07-20T13:32:34.020Z,40.64
2018-07-20T13:33:33.963Z,40.72
2018-07-20T13:34:33.930Z,39.75
2018-07-20T13:35:33.802Z,40.21
2018-07-20T13:36:33.720Z,40.70
2018-07-20T13:37:33.656Z,40.97
2018-07-20T13:38:33.583Z,41.83
2018-07-20T13:41:15.426Z,42.07
2018-07-20T13:42:15.349Z,41.97
2018-07-20T13:43:15.295Z,40.80
2018-07-20T13:44:15.360Z,40.53
2018-07-20T13:45:15.149Z,41.11
2018-07-20T13:46:15.080Z,40.72
2018-07-20T13:47:14.990Z,40.72
2018-07-20T13:48:15.929Z,40.23
2018-07-20T13:49:14.852Z,40.33
2018-07-20T13:50:14.787Z,40.41
2018-07-20T13:51:14.703Z,40.14
2018-07-20T13:52:14.648Z,40.14
2018-07-20T13:53:14.572Z,40.70
2018-07-20T13:54:14.509Z,40.48
2018-07-20T13:55:14.420Z,40.80
2018-07-20T13:57:56.418Z,41.36
2018-07-20T13:58:57.475Z,40.88
2018-07-20T13:59:56.259Z,41.48
2018-07-20T14:00:56.210Z,40.92
2018-07-20T14:01:56.119Z,40.82
2018-07-20T14:02:56.080Z,40.84
2018-07-20T14:03:56.034Z,40.95
2018-07-20T14:04:55.915Z,40.47
2018-07-20T14:05:55.884Z,39.20
2018-07-20T14:08:37.915Z,39.10
2018-07-20T14:09:37.872Z,38.90
2018-07-20T14:10:37.776Z,39.29
2018-07-20T14:11:37.719Z,39.08
2018-07-20T14:12:37.636Z,38.87
2018-07-20T14:15:19.941Z,39.67
2018-07-20T14:16:19.847Z,40.55
2018-07-20T14:17:19.772Z,39.86
2018-07-20T14:20:01.927Z,39.49
2018-07-20T14:21:01.852Z,39.20
2018-07-20T14:22:01.769Z,39.20
2018-07-20T14:23:01.706Z,39.29
2018-07-20T14:24:01.641Z,38.51
2018-07-20T14:25:02.595Z,39.10
2018-07-20T14:26:01.487Z,39.69
2018-07-20T14:27:01.442Z,40.56
2018-07-20T14:28:01.355Z,39.59
2018-07-20T14:29:01.287Z,39.00
2018-07-20T14:30:01.250Z,39.69
2018-07-20T14:32:43.425Z,40.14
2018-07-20T14:33:43.381Z,40.31
2018-07-20T14:34:43.278Z,41.48
2018-07-20T14:35:43.277Z,41.97
2018-07-20T14:36:43.135Z,40.99
2018-07-20T14:37:43.061Z,40.31
2018-07-20T14:38:43.014Z,40.31
2018-07-20T14:39:42.932Z,40.23
2018-07-20T14:40:42.937Z,40.33
2018-07-20T14:41:42.800Z,40.63
2018-07-20T14:42:42.713Z,40.80
2018-07-20T14:43:42.662Z,40.70
2018-07-20T14:44:42.563Z,40.31
2018-07-20T14:45:43.542Z,39.82
2018-07-20T14:46:42.441Z,40.70
2018-07-20T14:49:24.419Z,40.72
2018-07-20T14:50:24.469Z,40.33
2018-07-20T14:51:24.333Z,40.25
2018-07-20T14:54:06.433Z,39.94
2018-07-20T14:55:06.379Z,40.16
2018-07-20T14:56:06.321Z,40.06
2018-07-20T14:57:06.255Z,39.37
2018-07-20T14:58:06.143Z,40.64
2018-07-20T14:59:06.081Z,40.16
2018-07-20T15:00:06.028Z,39.45
2018-07-20T15:01:05.967Z,39.26
2018-07-20T15:02:05.894Z,39.26
2018-07-20T15:03:05.824Z,39.55
2018-07-20T15:04:05.737Z,39.36
2018-07-20T15:05:05.677Z,38.96
2018-07-20T15:06:05.622Z,39.84
2018-07-20T15:07:05.532Z,38.96
2018-07-20T15:08:05.476Z,39.55
2018-07-20T15:09:05.375Z,38.96
2018-07-20T15:10:05.290Z,39.45
2018-07-20T15:11:05.238Z,38.96
2018-07-20T15:12:05.178Z,38.67
2018-07-20T15:14:47.453Z,39.06
2018-07-20T15:15:47.384Z,39.06
2018-07-20T15:16:47.309Z,39.45
2018-07-20T15:19:29.426Z,39.57
2018-07-20T15:20:29.370Z,38.89
2018-07-20T15:21:29.293Z,38.89
2018-07-20T15:22:30.268Z,38.28
2018-07-20T15:23:29.194Z,38.96
2018-07-20T15:24:29.091Z,39.04
2018-07-20T15:25:29.025Z,39.04
2018-07-20T15:26:28.952Z,39.26
2018-07-20T15:27:28.884Z,38.96
2018-07-20T15:28:28.824Z,38.77
2018-07-20T15:29:28.769Z,38.09
2018-07-20T15:30:28.664Z,38.28
2018-07-20T15:31:28.591Z,37.96
2018-07-20T15:32:29.624Z,38.18
2018-07-20T15:33:28.456Z,38.75
2018-07-20T15:34:28.406Z,39.36
2018-07-20T15:35:28.315Z,38.35
2018-07-20T15:36:28.249Z,38.84
2018-07-20T15:37:28.181Z,37.96
2018-07-20T15:38:29.105Z,38.65
2018-07-20T15:39:28.083Z,38.75
2018-07-20T15:40:27.966Z,38.84
2018-07-20T15:41:27.891Z,39.14
2018-07-20T15:42:27.821Z,38.26
2018-07-20T15:43:27.768Z,38.26
2018-07-20T15:44:27.693Z,38.55
2018-07-20T15:45:27.596Z,38.55
2018-07-20T15:46:27.646Z,38.35
2018-07-20T15:47:27.562Z,38.35
2018-07-20T15:48:27.415Z,38.04
2018-07-20T15:49:27.334Z,37.75
2018-07-20T15:50:27.242Z,37.85
2018-07-20T15:51:55.486Z,38.14
2018-07-20T15:54:09.530Z,37.65
2018-07-20T15:55:09.391Z,38.06
2018-07-20T15:56:09.313Z,38.75
2018-07-20T15:57:09.268Z,38.94
2018-07-20T15:58:09.179Z,39.04
2018-07-20T15:59:09.103Z,38.26
2018-07-20T16:00:09.030Z,37.67
2018-07-20T16:01:08.981Z,37.37
2018-07-20T16:02:08.899Z,37.29
2018-07-20T16:03:08.934Z,37.09
2018-07-20T16:04:08.969Z,37.27
2018-07-20T16:05:08.740Z,37.67
2018-07-20T16:06:08.605Z,37.67
2018-07-20T16:08:50.476Z,37.65
2018-07-20T16:09:50.518Z,37.37
2018-07-20T16:10:50.330Z,38.34
2018-07-20T16:11:50.327Z,38.34
2018-07-20T16:12:50.176Z,37.65
2018-07-20T16:13:50.206Z,37.73
2018-07-20T16:14:50.027Z,38.24
2018-07-20T16:15:50.089Z,37.95
2018-07-20T16:16:49.883Z,37.63